sensor_id;sensor_type;location;lat;lon;timestamp;P1;durP1;ratioP1;P2;durP2;ratioP2
19414;SDS011;9843;48.882;12.592;2023-05-10T00:00:47;4.50;;;3.97;;
19414;SDS011;9843;48.882;12.592;2023-05-10T00:03:14;4.97;;;4.47;;
19414;SDS011;9843;48.882;12.592;2023-05-10T00:05:41;4.83;;;4.33;;
19414;SDS011;9843;48.882;12.592;2023-05-10T00:08:08;5.17;;;4.43;;
19414;SDS011;9843;48.882;12.592;2023-05-10T00:10:36;5.73;;;3.83;;
19414;SDS011;9843;48.882;12.592;2023-05-10T00:13:03;6.63;;;6.03;;
19414;SDS011;9843;48.882;12.592;2023-05-10T00:15:30;5.37;;;4.87;;
19414;SDS011;9843;48.882;12.592;2023-05-10T00:17:57;5.23;;;4.50;;
19414;SDS011;9843;48.882;12.592;2023-05-10T00:20:24;6.13;;;5.53;;
19414;SDS011;9843;48.882;12.592;2023-05-10T00:22:51;4.33;;;3.90;;
19414;SDS011;9843;48.882;12.592;2023-05-10T00:25:18;5.93;;;4.30;;
19414;SDS011;9843;48.882;12.592;2023-05-10T00:27:47;5.63;;;5.10;;
19414;SDS011;9843;48.882;12.592;2023-05-10T00:30:15;4.70;;;4.30;;
19414;SDS011;9843;48.882;12.592;2023-05-10T00:32:43;6.13;;;5.07;;
19414;SDS011;9843;48.882;12.592;2023-05-10T00:35:10;4.83;;;4.43;;
19414;SDS011;9843;48.882;12.592;2023-05-10T00:37:37;6.97;;;4.93;;
19414;SDS011;9843;48.882;12.592;2023-05-10T00:40:04;4.87;;;4.47;;
19414;SDS011;9843;48.882;12.592;2023-05-10T00:42:32;9.07;;;5.83;;
19414;SDS011;9843;48.882;12.592;2023-05-10T00:45:00;8.53;;;4.47;;
19414;SDS011;9843;48.882;12.592;2023-05-10T00:47:27;9.50;;;6.17;;
19414;SDS011;9843;48.882;12.592;2023-05-10T00:49:55;8.17;;;5.13;;
19414;SDS011;9843;48.882;12.592;2023-05-10T00:52:22;5.17;;;4.43;;
19414;SDS011;9843;48.882;12.592;2023-05-10T00:54:50;5.77;;;5.23;;
19414;SDS011;9843;48.882;12.592;2023-05-10T00:57:18;6.77;;;4.97;;
19414;SDS011;9843;48.882;12.592;2023-05-10T00:59:45;7.70;;;5.10;;
19414;SDS011;9843;48.882;12.592;2023-05-10T01:02:14;6.97;;;4.60;;
19414;SDS011;9843;48.882;12.592;2023-05-10T01:04:41;5.60;;;5.00;;
19414;SDS011;9843;48.882;12.592;2023-05-10T01:07:08;5.67;;;5.10;;
19414;SDS011;9843;48.882;12.592;2023-05-10T01:09:36;11.47;;;6.43;;
19414;SDS011;9843;48.882;12.592;2023-05-10T01:12:04;7.73;;;5.87;;
19414;SDS011;9843;48.882;12.592;2023-05-10T01:14:32;8.23;;;6.03;;
19414;SDS011;9843;48.882;12.592;2023-05-10T01:17:01;10.33;;;6.37;;
19414;SDS011;9843;48.882;12.592;2023-05-10T01:19:29;8.60;;;5.77;;
19414;SDS011;9843;48.882;12.592;2023-05-10T01:22:02;8.23;;;6.30;;
19414;SDS011;9843;48.882;12.592;2023-05-10T01:24:38;7.30;;;6.30;;
19414;SDS011;9843;48.882;12.592;2023-05-10T01:27:28;6.33;;;5.73;;
19414;SDS011;9843;48.882;12.592;2023-05-10T01:30:05;9.17;;;6.27;;
19414;SDS011;9843;48.882;12.592;2023-05-10T01:32:37;5.47;;;4.57;;
19414;SDS011;9843;48.882;12.592;2023-05-10T01:35:07;6.40;;;5.70;;
19414;SDS011;9843;48.882;12.592;2023-05-10T01:37:39;6.30;;;5.70;;
19414;SDS011;9843;48.882;12.592;2023-05-10T01:40:08;12.43;;;6.67;;
19414;SDS011;9843;48.882;12.592;2023-05-10T01:42:39;6.43;;;5.83;;
19414;SDS011;9843;48.882;12.592;2023-05-10T01:45:08;6.83;;;6.23;;
19414;SDS011;9843;48.882;12.592;2023-05-10T01:47:40;7.07;;;5.30;;
19414;SDS011;9843;48.882;12.592;2023-05-10T01:50:12;6.23;;;5.67;;
19414;SDS011;9843;48.882;12.592;2023-05-10T01:52:42;7.43;;;6.13;;
19414;SDS011;9843;48.882;12.592;2023-05-10T01:55:11;9.43;;;6.90;;
19414;SDS011;9843;48.882;12.592;2023-05-10T01:57:39;9.20;;;6.17;;
19414;SDS011;9843;48.882;12.592;2023-05-10T02:00:08;7.67;;;6.57;;
19414;SDS011;9843;48.882;12.592;2023-05-10T02:02:36;9.27;;;6.17;;
19414;SDS011;9843;48.882;12.592;2023-05-10T02:05:06;8.33;;;7.10;;
19414;SDS011;9843;48.882;12.592;2023-05-10T02:07:34;8.30;;;5.97;;
19414;SDS011;9843;48.882;12.592;2023-05-10T02:10:02;7.83;;;7.10;;
19414;SDS011;9843;48.882;12.592;2023-05-10T02:12:29;6.37;;;5.83;;
19414;SDS011;9843;48.882;12.592;2023-05-10T02:14:58;11.10;;;7.10;;
19414;SDS011;9843;48.882;12.592;2023-05-10T02:17:26;6.40;;;5.77;;
19414;SDS011;9843;48.882;12.592;2023-05-10T02:19:54;8.53;;;6.90;;
19414;SDS011;9843;48.882;12.592;2023-05-10T02:22:23;10.80;;;6.00;;
19414;SDS011;9843;48.882;12.592;2023-05-10T02:24:50;7.50;;;6.77;;
19414;SDS011;9843;48.882;12.592;2023-05-10T02:27:18;7.20;;;6.07;;
19414;SDS011;9843;48.882;12.592;2023-05-10T02:29:46;6.23;;;5.63;;
19414;SDS011;9843;48.882;12.592;2023-05-10T02:32:14;8.70;;;5.80;;
19414;SDS011;9843;48.882;12.592;2023-05-10T02:34:41;11.90;;;6.57;;
19414;SDS011;9843;48.882;12.592;2023-05-10T02:37:09;9.53;;;6.30;;
19414;SDS011;9843;48.882;12.592;2023-05-10T02:39:38;8.63;;;6.37;;
19414;SDS011;9843;48.882;12.592;2023-05-10T02:42:08;7.80;;;6.33;;
19414;SDS011;9843;48.882;12.592;2023-05-10T02:44:36;9.20;;;5.73;;
19414;SDS011;9843;48.882;12.592;2023-05-10T02:47:04;7.50;;;6.73;;
19414;SDS011;9843;48.882;12.592;2023-05-10T02:49:31;7.43;;;6.63;;
19414;SDS011;9843;48.882;12.592;2023-05-10T02:52:00;9.23;;;6.43;;
19414;SDS011;9843;48.882;12.592;2023-05-10T02:54:29;7.63;;;6.93;;
19414;SDS011;9843;48.882;12.592;2023-05-10T02:56:58;8.97;;;6.70;;
19414;SDS011;9843;48.882;12.592;2023-05-10T02:59:25;7.13;;;6.47;;
19414;SDS011;9843;48.882;12.592;2023-05-10T03:01:52;8.17;;;6.97;;
19414;SDS011;9843;48.882;12.592;2023-05-10T03:04:20;11.90;;;6.87;;
19414;SDS011;9843;48.882;12.592;2023-05-10T03:06:47;7.30;;;6.60;;
19414;SDS011;9843;48.882;12.592;2023-05-10T03:09:14;7.83;;;7.03;;
19414;SDS011;9843;48.882;12.592;2023-05-10T03:11:44;7.17;;;6.37;;
19414;SDS011;9843;48.882;12.592;2023-05-10T03:14:23;8.47;;;6.93;;
19414;SDS011;9843;48.882;12.592;2023-05-10T03:16:54;11.37;;;6.50;;
19414;SDS011;9843;48.882;12.592;2023-05-10T03:19:24;6.93;;;6.37;;
19414;SDS011;9843;48.882;12.592;2023-05-10T03:21:53;7.93;;;7.13;;
19414;SDS011;9843;48.882;12.592;2023-05-10T03:24:21;11.90;;;6.77;;
19414;SDS011;9843;48.882;12.592;2023-05-10T03:26:49;8.80;;;7.90;;
19414;SDS011;9843;48.882;12.592;2023-05-10T03:29:19;8.90;;;6.37;;
19414;SDS011;9843;48.882;12.592;2023-05-10T03:31:47;10.53;;;6.80;;
19414;SDS011;9843;48.882;12.592;2023-05-10T03:34:14;8.10;;;7.33;;
19414;SDS011;9843;48.882;12.592;2023-05-10T03:36:41;7.63;;;6.83;;
19414;SDS011;9843;48.882;12.592;2023-05-10T03:39:08;7.90;;;7.10;;
19414;SDS011;9843;48.882;12.592;2023-05-10T03:41:35;14.57;;;7.93;;
19414;SDS011;9843;48.882;12.592;2023-05-10T03:44:02;9.90;;;7.93;;
19414;SDS011;9843;48.882;12.592;2023-05-10T03:46:31;8.97;;;8.00;;
19414;SDS011;9843;48.882;12.592;2023-05-10T03:48:58;8.87;;;8.07;;
19414;SDS011;9843;48.882;12.592;2023-05-10T03:51:25;9.20;;;8.23;;
19414;SDS011;9843;48.882;12.592;2023-05-10T03:53:53;9.37;;;8.47;;
19414;SDS011;9843;48.882;12.592;2023-05-10T03:56:20;13.57;;;8.53;;
19414;SDS011;9843;48.882;12.592;2023-05-10T03:58:47;16.33;;;8.87;;
19414;SDS011;9843;48.882;12.592;2023-05-10T04:01:14;10.77;;;8.47;;
19414;SDS011;9843;48.882;12.592;2023-05-10T04:03:43;12.13;;;9.93;;
19414;SDS011;9843;48.882;12.592;2023-05-10T04:06:10;9.70;;;8.27;;
19414;SDS011;9843;48.882;12.592;2023-05-10T04:08:37;10.67;;;9.53;;
19414;SDS011;9843;48.882;12.592;2023-05-10T04:11:04;15.90;;;11.17;;
19414;SDS011;9843;48.882;12.592;2023-05-10T04:13:32;13.13;;;10.10;;
19414;SDS011;9843;48.882;12.592;2023-05-10T04:15:59;10.70;;;9.57;;
19414;SDS011;9843;48.882;12.592;2023-05-10T04:18:26;12.47;;;10.13;;
19414;SDS011;9843;48.882;12.592;2023-05-10T04:20:55;15.07;;;9.80;;
19414;SDS011;9843;48.882;12.592;2023-05-10T04:23:22;11.07;;;9.97;;
19414;SDS011;9843;48.882;12.592;2023-05-10T04:25:49;17.77;;;11.00;;
19414;SDS011;9843;48.882;12.592;2023-05-10T04:28:16;11.67;;;10.57;;
19414;SDS011;9843;48.882;12.592;2023-05-10T04:30:43;21.47;;;12.77;;
19414;SDS011;9843;48.882;12.592;2023-05-10T04:33:10;12.80;;;11.43;;
19414;SDS011;9843;48.882;12.592;2023-05-10T04:35:37;11.93;;;10.37;;
19414;SDS011;9843;48.882;12.592;2023-05-10T04:38:06;18.17;;;11.00;;
19414;SDS011;9843;48.882;12.592;2023-05-10T04:40:33;18.23;;;11.93;;
19414;SDS011;9843;48.882;12.592;2023-05-10T04:43:00;14.67;;;13.10;;
19414;SDS011;9843;48.882;12.592;2023-05-10T04:45:27;13.87;;;12.27;;
19414;SDS011;9843;48.882;12.592;2023-05-10T04:47:54;17.80;;;14.20;;
19414;SDS011;9843;48.882;12.592;2023-05-10T04:50:21;15.67;;;12.67;;
19414;SDS011;9843;48.882;12.592;2023-05-10T04:52:49;16.00;;;12.73;;
19414;SDS011;9843;48.882;12.592;2023-05-10T04:55:17;20.20;;;15.27;;
19414;SDS011;9843;48.882;12.592;2023-05-10T04:57:44;15.20;;;12.77;;
19414;SDS011;9843;48.882;12.592;2023-05-10T05:00:11;15.30;;;13.70;;
19414;SDS011;9843;48.882;12.592;2023-05-10T05:02:41;18.47;;;14.03;;
19414;SDS011;9843;48.882;12.592;2023-05-10T05:05:08;14.10;;;12.60;;
19414;SDS011;9843;48.882;12.592;2023-05-10T05:07:35;14.23;;;12.57;;
19414;SDS011;9843;48.882;12.592;2023-05-10T05:10:03;19.13;;;12.60;;
19414;SDS011;9843;48.882;12.592;2023-05-10T05:12:32;15.70;;;12.70;;
19414;SDS011;9843;48.882;12.592;2023-05-10T05:14:59;15.60;;;13.80;;
19414;SDS011;9843;48.882;12.592;2023-05-10T05:17:26;21.70;;;14.87;;
19414;SDS011;9843;48.882;12.592;2023-05-10T05:19:53;19.40;;;15.53;;
19414;SDS011;9843;48.882;12.592;2023-05-10T05:22:20;16.13;;;14.43;;
19414;SDS011;9843;48.882;12.592;2023-05-10T05:24:52;16.87;;;14.90;;
19414;SDS011;9843;48.882;12.592;2023-05-10T05:27:19;19.77;;;14.80;;
19414;SDS011;9843;48.882;12.592;2023-05-10T05:29:50;17.93;;;13.57;;
19414;SDS011;9843;48.882;12.592;2023-05-10T05:32:17;28.23;;;15.13;;
19414;SDS011;9843;48.882;12.592;2023-05-10T05:34:44;18.93;;;14.57;;
19414;SDS011;9843;48.882;12.592;2023-05-10T05:37:12;18.90;;;15.40;;
19414;SDS011;9843;48.882;12.592;2023-05-10T05:39:40;18.70;;;16.23;;
19414;SDS011;9843;48.882;12.592;2023-05-10T05:42:07;19.47;;;15.93;;
19414;SDS011;9843;48.882;12.592;2023-05-10T05:44:34;25.00;;;15.37;;
19414;SDS011;9843;48.882;12.592;2023-05-10T05:47:03;16.33;;;14.60;;
19414;SDS011;9843;48.882;12.592;2023-05-10T05:49:30;15.57;;;13.40;;
19414;SDS011;9843;48.882;12.592;2023-05-10T05:51:58;15.83;;;14.07;;
19414;SDS011;9843;48.882;12.592;2023-05-10T05:54:26;19.77;;;14.33;;
19414;SDS011;9843;48.882;12.592;2023-05-10T05:56:53;19.00;;;15.13;;
19414;SDS011;9843;48.882;12.592;2023-05-10T05:59:21;19.60;;;15.80;;
19414;SDS011;9843;48.882;12.592;2023-05-10T06:01:48;24.30;;;16.40;;
19414;SDS011;9843;48.882;12.592;2023-05-10T06:04:16;18.93;;;17.03;;
19414;SDS011;9843;48.882;12.592;2023-05-10T06:06:44;19.60;;;16.23;;
19414;SDS011;9843;48.882;12.592;2023-05-10T06:09:11;22.63;;;15.97;;
19414;SDS011;9843;48.882;12.592;2023-05-10T06:11:38;18.50;;;16.47;;
19414;SDS011;9843;48.882;12.592;2023-05-10T06:14:05;21.03;;;16.77;;
19414;SDS011;9843;48.882;12.592;2023-05-10T06:16:32;21.07;;;16.73;;
19414;SDS011;9843;48.882;12.592;2023-05-10T06:19:00;20.67;;;17.60;;
19414;SDS011;9843;48.882;12.592;2023-05-10T06:21:28;17.27;;;14.50;;
19414;SDS011;9843;48.882;12.592;2023-05-10T06:23:56;17.20;;;14.73;;
19414;SDS011;9843;48.882;12.592;2023-05-10T06:26:23;18.47;;;15.87;;
19414;SDS011;9843;48.882;12.592;2023-05-10T06:28:50;20.07;;;15.33;;
19414;SDS011;9843;48.882;12.592;2023-05-10T06:31:17;18.60;;;15.03;;
19414;SDS011;9843;48.882;12.592;2023-05-10T06:33:44;22.00;;;15.43;;
19414;SDS011;9843;48.882;12.592;2023-05-10T06:36:11;20.17;;;17.20;;
19414;SDS011;9843;48.882;12.592;2023-05-10T06:38:40;25.40;;;18.40;;
19414;SDS011;9843;48.882;12.592;2023-05-10T06:41:07;17.53;;;14.03;;
19414;SDS011;9843;48.882;12.592;2023-05-10T06:43:34;18.33;;;16.27;;
19414;SDS011;9843;48.882;12.592;2023-05-10T06:46:04;25.13;;;15.27;;
19414;SDS011;9843;48.882;12.592;2023-05-10T06:48:32;19.47;;;16.30;;
19414;SDS011;9843;48.882;12.592;2023-05-10T06:50:59;34.17;;;21.77;;
19414;SDS011;9843;48.882;12.592;2023-05-10T06:53:26;17.33;;;14.50;;
19414;SDS011;9843;48.882;12.592;2023-05-10T06:55:55;17.47;;;15.77;;
19414;SDS011;9843;48.882;12.592;2023-05-10T06:58:22;18.07;;;16.13;;
19414;SDS011;9843;48.882;12.592;2023-05-10T07:00:49;19.70;;;16.77;;
19414;SDS011;9843;48.882;12.592;2023-05-10T07:03:16;20.80;;;16.67;;
19414;SDS011;9843;48.882;12.592;2023-05-10T07:05:43;18.17;;;15.10;;
19414;SDS011;9843;48.882;12.592;2023-05-10T07:08:10;18.60;;;16.73;;
19414;SDS011;9843;48.882;12.592;2023-05-10T07:10:38;18.43;;;16.43;;
19414;SDS011;9843;48.882;12.592;2023-05-10T07:13:06;21.27;;;18.23;;
19414;SDS011;9843;48.882;12.592;2023-05-10T07:15:34;19.33;;;16.87;;
19414;SDS011;9843;48.882;12.592;2023-05-10T07:18:01;19.57;;;16.80;;
19414;SDS011;9843;48.882;12.592;2023-05-10T07:20:30;24.83;;;14.90;;
19414;SDS011;9843;48.882;12.592;2023-05-10T07:22:57;17.87;;;14.13;;
19414;SDS011;9843;48.882;12.592;2023-05-10T07:25:24;19.07;;;14.27;;
19414;SDS011;9843;48.882;12.592;2023-05-10T07:27:51;18.40;;;14.83;;
19414;SDS011;9843;48.882;12.592;2023-05-10T07:30:20;19.20;;;16.03;;
19414;SDS011;9843;48.882;12.592;2023-05-10T07:32:47;19.07;;;15.70;;
19414;SDS011;9843;48.882;12.592;2023-05-10T07:35:14;15.83;;;14.20;;
19414;SDS011;9843;48.882;12.592;2023-05-10T07:37:41;17.83;;;16.03;;
19414;SDS011;9843;48.882;12.592;2023-05-10T07:40:08;20.23;;;15.17;;
19414;SDS011;9843;48.882;12.592;2023-05-10T07:42:36;17.97;;;15.83;;
19414;SDS011;9843;48.882;12.592;2023-05-10T07:45:03;24.67;;;16.10;;
19414;SDS011;9843;48.882;12.592;2023-05-10T07:47:31;18.53;;;15.77;;
19414;SDS011;9843;48.882;12.592;2023-05-10T07:49:58;20.43;;;17.33;;
19414;SDS011;9843;48.882;12.592;2023-05-10T07:52:26;20.47;;;15.83;;
19414;SDS011;9843;48.882;12.592;2023-05-10T07:54:53;21.27;;;15.47;;
19414;SDS011;9843;48.882;12.592;2023-05-10T07:57:21;17.20;;;15.10;;
19414;SDS011;9843;48.882;12.592;2023-05-10T07:59:48;19.17;;;16.93;;
19414;SDS011;9843;48.882;12.592;2023-05-10T08:02:15;16.83;;;15.03;;
19414;SDS011;9843;48.882;12.592;2023-05-10T08:04:44;20.07;;;18.03;;
19414;SDS011;9843;48.882;12.592;2023-05-10T08:07:11;15.50;;;14.07;;
19414;SDS011;9843;48.882;12.592;2023-05-10T08:09:38;18.20;;;16.27;;
19414;SDS011;9843;48.882;12.592;2023-05-10T08:12:05;18.63;;;16.63;;
19414;SDS011;9843;48.882;12.592;2023-05-10T08:14:32;17.03;;;15.23;;
19414;SDS011;9843;48.882;12.592;2023-05-10T08:17:01;17.00;;;15.23;;
19414;SDS011;9843;48.882;12.592;2023-05-10T08:19:29;15.27;;;13.77;;
19414;SDS011;9843;48.882;12.592;2023-05-10T08:21:57;16.93;;;15.30;;
19414;SDS011;9843;48.882;12.592;2023-05-10T08:24:24;18.67;;;15.70;;
19414;SDS011;9843;48.882;12.592;2023-05-10T08:26:51;20.73;;;14.53;;
19414;SDS011;9843;48.882;12.592;2023-05-10T08:29:18;14.50;;;13.17;;
19414;SDS011;9843;48.882;12.592;2023-05-10T08:31:45;20.40;;;17.17;;
19414;SDS011;9843;48.882;12.592;2023-05-10T08:34:12;15.57;;;13.63;;
19414;SDS011;9843;48.882;12.592;2023-05-10T08:36:40;20.50;;;14.73;;
19414;SDS011;9843;48.882;12.592;2023-05-10T08:39:08;16.80;;;15.10;;
19414;SDS011;9843;48.882;12.592;2023-05-10T08:41:35;15.80;;;14.10;;
19414;SDS011;9843;48.882;12.592;2023-05-10T08:44:05;22.23;;;16.00;;
19414;SDS011;9843;48.882;12.592;2023-05-10T08:46:34;16.27;;;14.53;;
19414;SDS011;9843;48.882;12.592;2023-05-10T08:49:04;18.93;;;14.63;;
19414;SDS011;9843;48.882;12.592;2023-05-10T08:51:35;17.33;;;13.93;;
19414;SDS011;9843;48.882;12.592;2023-05-10T08:54:03;17.67;;;14.33;;
19414;SDS011;9843;48.882;12.592;2023-05-10T08:56:31;16.90;;;14.03;;
19414;SDS011;9843;48.882;12.592;2023-05-10T08:58:58;21.23;;;15.20;;
19414;SDS011;9843;48.882;12.592;2023-05-10T09:01:26;18.23;;;15.97;;
19414;SDS011;9843;48.882;12.592;2023-05-10T09:03:53;16.70;;;14.97;;
19414;SDS011;9843;48.882;12.592;2023-05-10T09:06:20;19.63;;;17.33;;
19414;SDS011;9843;48.882;12.592;2023-05-10T09:08:48;20.27;;;18.17;;
19414;SDS011;9843;48.882;12.592;2023-05-10T09:11:15;18.93;;;17.00;;
19414;SDS011;9843;48.882;12.592;2023-05-10T09:13:44;16.07;;;14.43;;
19414;SDS011;9843;48.882;12.592;2023-05-10T09:16:11;18.10;;;15.23;;
19414;SDS011;9843;48.882;12.592;2023-05-10T09:18:38;14.67;;;13.13;;
19414;SDS011;9843;48.882;12.592;2023-05-10T09:21:05;14.73;;;13.07;;
19414;SDS011;9843;48.882;12.592;2023-05-10T09:23:32;12.17;;;10.97;;
19414;SDS011;9843;48.882;12.592;2023-05-10T09:26:02;12.27;;;10.87;;
19414;SDS011;9843;48.882;12.592;2023-05-10T09:28:31;12.00;;;10.80;;
19414;SDS011;9843;48.882;12.592;2023-05-10T09:30:59;11.70;;;10.60;;
19414;SDS011;9843;48.882;12.592;2023-05-10T09:33:26;10.10;;;9.20;;
19414;SDS011;9843;48.882;12.592;2023-05-10T09:35:53;10.00;;;9.00;;
19414;SDS011;9843;48.882;12.592;2023-05-10T09:38:20;10.10;;;9.20;;
19414;SDS011;9843;48.882;12.592;2023-05-10T09:40:51;10.00;;;8.73;;
19414;SDS011;9843;48.882;12.592;2023-05-10T09:43:20;10.13;;;9.13;;
19414;SDS011;9843;48.882;12.592;2023-05-10T09:45:48;11.80;;;9.00;;
19414;SDS011;9843;48.882;12.592;2023-05-10T09:48:17;12.53;;;10.77;;
19414;SDS011;9843;48.882;12.592;2023-05-10T09:50:44;11.83;;;10.30;;
19414;SDS011;9843;48.882;12.592;2023-05-10T09:53:12;9.77;;;8.77;;
19414;SDS011;9843;48.882;12.592;2023-05-10T09:55:42;10.40;;;9.23;;
19414;SDS011;9843;48.882;12.592;2023-05-10T09:58:11;11.33;;;10.10;;
19414;SDS011;9843;48.882;12.592;2023-05-10T10:00:39;11.53;;;9.70;;
19414;SDS011;9843;48.882;12.592;2023-05-10T10:03:07;9.60;;;8.60;;
19414;SDS011;9843;48.882;12.592;2023-05-10T10:05:40;8.23;;;7.43;;
19414;SDS011;9843;48.882;12.592;2023-05-10T10:08:07;9.03;;;8.23;;
19414;SDS011;9843;48.882;12.592;2023-05-10T10:10:34;15.10;;;9.73;;
19414;SDS011;9843;48.882;12.592;2023-05-10T10:13:02;9.83;;;8.87;;
19414;SDS011;9843;48.882;12.592;2023-05-10T10:15:29;9.03;;;8.23;;
19414;SDS011;9843;48.882;12.592;2023-05-10T10:17:57;9.73;;;7.33;;
19414;SDS011;9843;48.882;12.592;2023-05-10T10:20:24;9.13;;;8.20;;
19414;SDS011;9843;48.882;12.592;2023-05-10T10:22:53;10.80;;;8.57;;
19414;SDS011;9843;48.882;12.592;2023-05-10T10:25:20;9.97;;;9.07;;
19414;SDS011;9843;48.882;12.592;2023-05-10T10:27:49;8.70;;;7.87;;
19414;SDS011;9843;48.882;12.592;2023-05-10T10:30:23;10.90;;;8.63;;
19414;SDS011;9843;48.882;12.592;2023-05-10T10:33:06;8.03;;;7.33;;
19414;SDS011;9843;48.882;12.592;2023-05-10T10:35:36;6.87;;;6.17;;
19414;SDS011;9843;48.882;12.592;2023-05-10T10:38:04;12.80;;;8.33;;
19414;SDS011;9843;48.882;12.592;2023-05-10T10:40:34;8.13;;;6.87;;
19414;SDS011;9843;48.882;12.592;2023-05-10T10:45:43;6.77;;;6.10;;
19414;SDS011;9843;48.882;12.592;2023-05-10T10:48:20;9.10;;;7.00;;
19414;SDS011;9843;48.882;12.592;2023-05-10T10:50:51;8.50;;;6.57;;
19414;SDS011;9843;48.882;12.592;2023-05-10T10:53:23;7.37;;;6.40;;
19414;SDS011;9843;48.882;12.592;2023-05-10T10:55:55;7.73;;;6.27;;
19414;SDS011;9843;48.882;12.592;2023-05-10T10:58:29;6.80;;;6.10;;
19414;SDS011;9843;48.882;12.592;2023-05-10T11:01:08;11.13;;;7.37;;
19414;SDS011;9843;48.882;12.592;2023-05-10T11:03:36;6.67;;;5.93;;
19414;SDS011;9843;48.882;12.592;2023-05-10T11:06:03;5.67;;;5.17;;
19414;SDS011;9843;48.882;12.592;2023-05-10T11:08:32;6.40;;;5.47;;
19414;SDS011;9843;48.882;12.592;2023-05-10T11:11:04;6.53;;;5.07;;
19414;SDS011;9843;48.882;12.592;2023-05-10T11:13:33;8.43;;;6.00;;
19414;SDS011;9843;48.882;12.592;2023-05-10T11:16:14;10.30;;;4.27;;
19414;SDS011;9843;48.882;12.592;2023-05-10T11:18:51;4.67;;;4.27;;
19414;SDS011;9843;48.882;12.592;2023-05-10T11:21:18;5.07;;;4.43;;
19414;SDS011;9843;48.882;12.592;2023-05-10T11:23:50;5.83;;;5.23;;
19414;SDS011;9843;48.882;12.592;2023-05-10T11:26:21;6.00;;;5.40;;
19414;SDS011;9843;48.882;12.592;2023-05-10T11:28:48;6.10;;;5.57;;
19414;SDS011;9843;48.882;12.592;2023-05-10T11:31:16;9.50;;;6.43;;
19414;SDS011;9843;48.882;12.592;2023-05-10T11:33:44;7.50;;;5.43;;
19414;SDS011;9843;48.882;12.592;2023-05-10T11:36:11;8.40;;;5.67;;
19414;SDS011;9843;48.882;12.592;2023-05-10T11:38:38;6.53;;;5.93;;
19414;SDS011;9843;48.882;12.592;2023-05-10T11:41:06;6.37;;;5.77;;
19414;SDS011;9843;48.882;12.592;2023-05-10T11:43:34;7.90;;;5.00;;
19414;SDS011;9843;48.882;12.592;2023-05-10T11:46:03;6.13;;;5.53;;
19414;SDS011;9843;48.882;12.592;2023-05-10T11:48:30;5.50;;;5.00;;
19414;SDS011;9843;48.882;12.592;2023-05-10T11:50:58;6.13;;;5.63;;
19414;SDS011;9843;48.882;12.592;2023-05-10T11:53:25;5.00;;;4.50;;
19414;SDS011;9843;48.882;12.592;2023-05-10T11:55:53;5.80;;;4.13;;
19414;SDS011;9843;48.882;12.592;2023-05-10T11:58:21;4.43;;;3.80;;
19414;SDS011;9843;48.882;12.592;2023-05-10T12:00:49;7.80;;;3.67;;
19414;SDS011;9843;48.882;12.592;2023-05-10T12:03:16;4.33;;;3.93;;
19414;SDS011;9843;48.882;12.592;2023-05-10T12:05:43;3.87;;;3.57;;
19414;SDS011;9843;48.882;12.592;2023-05-10T12:08:11;4.17;;;3.77;;
19414;SDS011;9843;48.882;12.592;2023-05-10T12:10:38;4.80;;;3.60;;
19414;SDS011;9843;48.882;12.592;2023-05-10T12:13:05;6.00;;;3.97;;
19414;SDS011;9843;48.882;12.592;2023-05-10T12:15:38;3.83;;;3.37;;
19414;SDS011;9843;48.882;12.592;2023-05-10T12:18:05;4.50;;;3.47;;
19414;SDS011;9843;48.882;12.592;2023-05-10T12:20:35;4.80;;;4.10;;
19414;SDS011;9843;48.882;12.592;2023-05-10T12:23:02;3.00;;;2.70;;
19414;SDS011;9843;48.882;12.592;2023-05-10T12:25:30;4.00;;;3.60;;
19414;SDS011;9843;48.882;12.592;2023-05-10T12:27:58;4.57;;;3.27;;
19414;SDS011;9843;48.882;12.592;2023-05-10T12:30:26;3.53;;;3.23;;
19414;SDS011;9843;48.882;12.592;2023-05-10T12:32:59;2.73;;;2.53;;
19414;SDS011;9843;48.882;12.592;2023-05-10T12:35:27;3.63;;;3.23;;
19414;SDS011;9843;48.882;12.592;2023-05-10T12:37:56;5.90;;;3.37;;
19414;SDS011;9843;48.882;12.592;2023-05-10T12:40:23;4.60;;;4.00;;
19414;SDS011;9843;48.882;12.592;2023-05-10T12:42:50;4.03;;;2.93;;
19414;SDS011;9843;48.882;12.592;2023-05-10T12:45:18;2.80;;;2.50;;
19414;SDS011;9843;48.882;12.592;2023-05-10T12:47:46;4.03;;;3.73;;
19414;SDS011;9843;48.882;12.592;2023-05-10T12:50:15;3.27;;;2.97;;
19414;SDS011;9843;48.882;12.592;2023-05-10T12:52:42;4.43;;;2.87;;
19414;SDS011;9843;48.882;12.592;2023-05-10T12:55:09;3.23;;;2.70;;
19414;SDS011;9843;48.882;12.592;2023-05-10T12:57:36;2.97;;;2.60;;
19414;SDS011;9843;48.882;12.592;2023-05-10T13:00:03;2.93;;;2.63;;
19414;SDS011;9843;48.882;12.592;2023-05-10T13:02:31;4.47;;;2.90;;
19414;SDS011;9843;48.882;12.592;2023-05-10T13:04:58;5.93;;;2.80;;
19414;SDS011;9843;48.882;12.592;2023-05-10T13:07:26;3.93;;;3.40;;
19414;SDS011;9843;48.882;12.592;2023-05-10T13:09:53;2.87;;;2.20;;
19414;SDS011;9843;48.882;12.592;2023-05-10T13:12:20;3.90;;;2.73;;
19414;SDS011;9843;48.882;12.592;2023-05-10T13:14:47;3.37;;;2.77;;
19414;SDS011;9843;48.882;12.592;2023-05-10T13:17:14;5.07;;;2.50;;
19414;SDS011;9843;48.882;12.592;2023-05-10T13:19:41;2.87;;;1.97;;
19414;SDS011;9843;48.882;12.592;2023-05-10T13:22:08;2.07;;;1.87;;
19414;SDS011;9843;48.882;12.592;2023-05-10T13:24:36;2.00;;;1.90;;
19414;SDS011;9843;48.882;12.592;2023-05-10T13:27:03;2.83;;;2.50;;
19414;SDS011;9843;48.882;12.592;2023-05-10T13:29:30;2.70;;;2.20;;
19414;SDS011;9843;48.882;12.592;2023-05-10T13:31:58;2.53;;;2.33;;
19414;SDS011;9843;48.882;12.592;2023-05-10T13:34:25;2.80;;;2.33;;
19414;SDS011;9843;48.882;12.592;2023-05-10T13:36:52;2.87;;;2.13;;
19414;SDS011;9843;48.882;12.592;2023-05-10T13:39:21;2.07;;;1.90;;
19414;SDS011;9843;48.882;12.592;2023-05-10T13:41:49;2.63;;;2.43;;
19414;SDS011;9843;48.882;12.592;2023-05-10T13:44:16;3.33;;;2.37;;
19414;SDS011;9843;48.882;12.592;2023-05-10T13:46:43;2.43;;;2.23;;
19414;SDS011;9843;48.882;12.592;2023-05-10T13:49:10;2.40;;;2.20;;
19414;SDS011;9843;48.882;12.592;2023-05-10T13:51:37;3.37;;;2.70;;
19414;SDS011;9843;48.882;12.592;2023-05-10T13:54:04;2.97;;;2.73;;
19414;SDS011;9843;48.882;12.592;2023-05-10T13:56:31;2.33;;;2.13;;
19414;SDS011;9843;48.882;12.592;2023-05-10T13:59:00;4.73;;;2.30;;
19414;SDS011;9843;48.882;12.592;2023-05-10T14:01:27;5.83;;;2.47;;
19414;SDS011;9843;48.882;12.592;2023-05-10T14:03:54;5.20;;;3.03;;
19414;SDS011;9843;48.882;12.592;2023-05-10T14:06:21;2.27;;;2.07;;
19414;SDS011;9843;48.882;12.592;2023-05-10T14:08:48;2.27;;;2.03;;
19414;SDS011;9843;48.882;12.592;2023-05-10T14:11:15;2.43;;;2.23;;
19414;SDS011;9843;48.882;12.592;2023-05-10T14:13:42;3.93;;;2.13;;
19414;SDS011;9843;48.882;12.592;2023-05-10T14:16:10;2.73;;;2.53;;
19414;SDS011;9843;48.882;12.592;2023-05-10T14:18:39;2.13;;;2.00;;
19414;SDS011;9843;48.882;12.592;2023-05-10T14:21:06;3.10;;;2.10;;
19414;SDS011;9843;48.882;12.592;2023-05-10T14:23:33;2.50;;;2.30;;
19414;SDS011;9843;48.882;12.592;2023-05-10T14:26:00;2.80;;;2.60;;
19414;SDS011;9843;48.882;12.592;2023-05-10T14:28:27;4.20;;;2.77;;
19414;SDS011;9843;48.882;12.592;2023-05-10T14:30:54;2.60;;;2.40;;
19414;SDS011;9843;48.882;12.592;2023-05-10T14:33:23;2.47;;;2.27;;
19414;SDS011;9843;48.882;12.592;2023-05-10T14:35:50;2.63;;;2.43;;
19414;SDS011;9843;48.882;12.592;2023-05-10T14:38:17;5.07;;;2.60;;
19414;SDS011;9843;48.882;12.592;2023-05-10T14:40:44;2.53;;;2.30;;
19414;SDS011;9843;48.882;12.592;2023-05-10T14:43:12;2.10;;;2.00;;